sensor_id;sensor_type;location;lat;lon;timestamp;P1;durP1;ratioP1;P2;durP2;ratioP2
2462;SDS011;1243;54.298;10.172;2023-07-24T00:01:20;9.17;;;6.90;;
2462;SDS011;1243;54.298;10.172;2023-07-24T00:03:48;8.10;;;7.30;;
2462;SDS011;1243;54.298;10.172;2023-07-24T00:06:14;11.30;;;7.43;;
2462;SDS011;1243;54.298;10.172;2023-07-24T00:08:42;8.90;;;8.00;;
2462;SDS011;1243;54.298;10.172;2023-07-24T00:11:09;7.47;;;6.77;;
2462;SDS011;1243;54.298;10.172;2023-07-24T00:13:35;8.07;;;7.13;;
2462;SDS011;1243;54.298;10.172;2023-07-24T00:16:06;7.70;;;7.00;;
2462;SDS011;1243;54.298;10.172;2023-07-24T00:18:34;9.30;;;8.40;;
2462;SDS011;1243;54.298;10.172;2023-07-24T00:21:01;7.97;;;7.17;;
2462;SDS011;1243;54.298;10.172;2023-07-24T00:23:27;9.53;;;6.87;;
2462;SDS011;1243;54.298;10.172;2023-07-24T00:25:54;8.20;;;7.50;;
2462;SDS011;1243;54.298;10.172;2023-07-24T00:28:21;11.70;;;8.03;;
2462;SDS011;1243;54.298;10.172;2023-07-24T00:30:48;12.10;;;6.87;;
2462;SDS011;1243;54.298;10.172;2023-07-24T00:33:15;11.87;;;8.40;;
2462;SDS011;1243;54.298;10.172;2023-07-24T00:35:41;8.97;;;8.07;;
2462;SDS011;1243;54.298;10.172;2023-07-24T00:38:07;8.77;;;7.87;;
2462;SDS011;1243;54.298;10.172;2023-07-24T00:40:33;8.33;;;7.53;;
2462;SDS011;1243;54.298;10.172;2023-07-24T00:43:00;9.40;;;8.30;;
2462;SDS011;1243;54.298;10.172;2023-07-24T00:45:28;8.87;;;7.70;;
2462;SDS011;1243;54.298;10.172;2023-07-24T00:47:55;8.50;;;7.17;;
2462;SDS011;1243;54.298;10.172;2023-07-24T00:50:22;11.37;;;8.93;;
2462;SDS011;1243;54.298;10.172;2023-07-24T00:52:49;11.17;;;8.40;;
2462;SDS011;1243;54.298;10.172;2023-07-24T00:55:15;12.60;;;8.03;;
2462;SDS011;1243;54.298;10.172;2023-07-24T00:57:43;9.93;;;8.00;;
2462;SDS011;1243;54.298;10.172;2023-07-24T01:00:10;10.10;;;8.67;;
2462;SDS011;1243;54.298;10.172;2023-07-24T01:02:36;10.20;;;7.90;;
2462;SDS011;1243;54.298;10.172;2023-07-24T01:05:03;11.10;;;8.10;;
2462;SDS011;1243;54.298;10.172;2023-07-24T01:07:33;8.83;;;7.93;;
2462;SDS011;1243;54.298;10.172;2023-07-24T01:10:00;8.00;;;7.20;;
2462;SDS011;1243;54.298;10.172;2023-07-24T01:12:36;8.20;;;7.07;;
2462;SDS011;1243;54.298;10.172;2023-07-24T01:15:30;8.53;;;7.73;;
2462;SDS011;1243;54.298;10.172;2023-07-24T01:18:11;9.60;;;8.60;;
2462;SDS011;1243;54.298;10.172;2023-07-24T01:20:43;8.13;;;7.00;;
2462;SDS011;1243;54.298;10.172;2023-07-24T01:25:55;10.27;;;8.47;;
2462;SDS011;1243;54.298;10.172;2023-07-24T01:28:27;9.80;;;8.30;;
2462;SDS011;1243;54.298;10.172;2023-07-24T01:30:53;9.33;;;8.43;;
2462;SDS011;1243;54.298;10.172;2023-07-24T01:33:20;11.27;;;7.93;;
2462;SDS011;1243;54.298;10.172;2023-07-24T01:35:48;9.13;;;8.23;;
2462;SDS011;1243;54.298;10.172;2023-07-24T01:38:18;8.80;;;7.83;;
2462;SDS011;1243;54.298;10.172;2023-07-24T01:40:45;8.47;;;7.57;;
2462;SDS011;1243;54.298;10.172;2023-07-24T01:43:12;11.00;;;8.53;;
2462;SDS011;1243;54.298;10.172;2023-07-24T01:45:38;16.73;;;8.20;;
2462;SDS011;1243;54.298;10.172;2023-07-24T01:48:06;10.70;;;8.43;;
2462;SDS011;1243;54.298;10.172;2023-07-24T01:50:33;9.80;;;8.70;;
2462;SDS011;1243;54.298;10.172;2023-07-24T01:52:58;9.27;;;8.20;;
2462;SDS011;1243;54.298;10.172;2023-07-24T01:55:26;14.93;;;8.47;;
2462;SDS011;1243;54.298;10.172;2023-07-24T01:57:51;12.60;;;8.97;;
2462;SDS011;1243;54.298;10.172;2023-07-24T02:00:19;11.10;;;9.53;;
2462;SDS011;1243;54.298;10.172;2023-07-24T02:02:45;14.50;;;8.47;;
2462;SDS011;1243;54.298;10.172;2023-07-24T02:05:12;15.90;;;8.70;;
2462;SDS011;1243;54.298;10.172;2023-07-24T02:07:39;11.00;;;8.70;;
2462;SDS011;1243;54.298;10.172;2023-07-24T02:10:05;11.10;;;8.57;;
2462;SDS011;1243;54.298;10.172;2023-07-24T02:12:31;12.10;;;9.33;;
2462;SDS011;1243;54.298;10.172;2023-07-24T02:15:00;9.77;;;8.00;;
2462;SDS011;1243;54.298;10.172;2023-07-24T02:17:26;16.60;;;8.00;;
2462;SDS011;1243;54.298;10.172;2023-07-24T02:19:53;10.27;;;9.27;;
2462;SDS011;1243;54.298;10.172;2023-07-24T02:22:19;15.43;;;9.30;;
2462;SDS011;1243;54.298;10.172;2023-07-24T02:24:45;10.50;;;9.43;;
2462;SDS011;1243;54.298;10.172;2023-07-24T02:27:24;14.20;;;9.77;;
2462;SDS011;1243;54.298;10.172;2023-07-24T02:30:02;11.00;;;9.30;;
2462;SDS011;1243;54.298;10.172;2023-07-24T02:32:29;14.17;;;9.97;;
2462;SDS011;1243;54.298;10.172;2023-07-24T02:34:57;21.60;;;9.60;;
2462;SDS011;1243;54.298;10.172;2023-07-24T02:37:23;17.20;;;10.10;;
2462;SDS011;1243;54.298;10.172;2023-07-24T02:39:49;9.87;;;8.77;;
2462;SDS011;1243;54.298;10.172;2023-07-24T02:42:14;10.90;;;8.60;;
2462;SDS011;1243;54.298;10.172;2023-07-24T02:44:40;14.60;;;8.70;;
2462;SDS011;1243;54.298;10.172;2023-07-24T02:47:07;11.93;;;9.40;;
2462;SDS011;1243;54.298;10.172;2023-07-24T02:49:34;11.30;;;9.30;;
2462;SDS011;1243;54.298;10.172;2023-07-24T02:52:04;14.70;;;9.23;;
2462;SDS011;1243;54.298;10.172;2023-07-24T02:54:32;14.30;;;10.17;;
2462;SDS011;1243;54.298;10.172;2023-07-24T02:56:59;15.33;;;9.83;;
2462;SDS011;1243;54.298;10.172;2023-07-24T02:59:29;16.63;;;9.30;;
2462;SDS011;1243;54.298;10.172;2023-07-24T03:01:57;16.43;;;8.67;;
2462;SDS011;1243;54.298;10.172;2023-07-24T03:04:24;15.97;;;10.60;;
2462;SDS011;1243;54.298;10.172;2023-07-24T03:06:50;13.20;;;9.27;;
2462;SDS011;1243;54.298;10.172;2023-07-24T03:09:17;12.73;;;10.27;;
2462;SDS011;1243;54.298;10.172;2023-07-24T03:11:44;14.20;;;9.80;;
2462;SDS011;1243;54.298;10.172;2023-07-24T03:14:11;10.83;;;9.73;;
2462;SDS011;1243;54.298;10.172;2023-07-24T03:16:36;11.97;;;8.67;;
2462;SDS011;1243;54.298;10.172;2023-07-24T03:19:02;15.60;;;8.80;;
2462;SDS011;1243;54.298;10.172;2023-07-24T03:21:29;13.30;;;8.33;;
2462;SDS011;1243;54.298;10.172;2023-07-24T03:23:56;12.10;;;10.10;;
2462;SDS011;1243;54.298;10.172;2023-07-24T03:26:22;12.33;;;9.07;;
2462;SDS011;1243;54.298;10.172;2023-07-24T03:28:49;9.47;;;8.33;;
2462;SDS011;1243;54.298;10.172;2023-07-24T03:31:16;10.57;;;9.57;;
2462;SDS011;1243;54.298;10.172;2023-07-24T03:33:44;10.93;;;9.83;;
2462;SDS011;1243;54.298;10.172;2023-07-24T03:36:10;9.30;;;8.40;;
2462;SDS011;1243;54.298;10.172;2023-07-24T03:38:37;13.40;;;9.00;;
2462;SDS011;1243;54.298;10.172;2023-07-24T03:41:04;15.37;;;9.60;;
2462;SDS011;1243;54.298;10.172;2023-07-24T03:43:32;10.23;;;9.23;;
2462;SDS011;1243;54.298;10.172;2023-07-24T03:45:57;10.87;;;8.60;;
2462;SDS011;1243;54.298;10.172;2023-07-24T03:48:23;11.00;;;8.17;;
2462;SDS011;1243;54.298;10.172;2023-07-24T03:50:50;11.70;;;10.13;;
2462;SDS011;1243;54.298;10.172;2023-07-24T03:53:22;9.50;;;8.20;;
2462;SDS011;1243;54.298;10.172;2023-07-24T03:55:48;10.60;;;9.50;;
2462;SDS011;1243;54.298;10.172;2023-07-24T03:58:14;10.40;;;9.50;;
2462;SDS011;1243;54.298;10.172;2023-07-24T04:00:40;13.60;;;9.23;;
2462;SDS011;1243;54.298;10.172;2023-07-24T04:03:06;11.87;;;8.30;;
2462;SDS011;1243;54.298;10.172;2023-07-24T04:05:33;13.80;;;8.77;;
2462;SDS011;1243;54.298;10.172;2023-07-24T04:08:01;10.63;;;8.73;;
2462;SDS011;1243;54.298;10.172;2023-07-24T04:10:27;10.53;;;9.10;;
2462;SDS011;1243;54.298;10.172;2023-07-24T04:12:54;11.50;;;8.43;;
2462;SDS011;1243;54.298;10.172;2023-07-24T04:15:19;13.33;;;9.10;;
2462;SDS011;1243;54.298;10.172;2023-07-24T04:17:45;14.73;;;9.23;;
2462;SDS011;1243;54.298;10.172;2023-07-24T04:20:11;12.37;;;8.87;;
2462;SDS011;1243;54.298;10.172;2023-07-24T04:22:37;11.70;;;8.50;;
2462;SDS011;1243;54.298;10.172;2023-07-24T04:25:03;10.27;;;8.50;;
2462;SDS011;1243;54.298;10.172;2023-07-24T04:27:29;9.93;;;8.93;;
2462;SDS011;1243;54.298;10.172;2023-07-24T04:29:55;11.57;;;9.17;;
2462;SDS011;1243;54.298;10.172;2023-07-24T04:32:20;11.00;;;7.77;;
2462;SDS011;1243;54.298;10.172;2023-07-24T04:34:47;10.13;;;8.80;;
2462;SDS011;1243;54.298;10.172;2023-07-24T04:37:13;9.60;;;7.53;;
2462;SDS011;1243;54.298;10.172;2023-07-24T04:39:39;10.60;;;8.47;;
2462;SDS011;1243;54.298;10.172;2023-07-24T04:42:06;11.03;;;8.27;;
2462;SDS011;1243;54.298;10.172;2023-07-24T04:44:32;11.83;;;8.77;;
2462;SDS011;1243;54.298;10.172;2023-07-24T04:46:58;11.67;;;9.00;;
2462;SDS011;1243;54.298;10.172;2023-07-24T04:49:24;15.30;;;10.13;;
2462;SDS011;1243;54.298;10.172;2023-07-24T04:51:51;12.50;;;9.70;;
2462;SDS011;1243;54.298;10.172;2023-07-24T04:54:17;9.10;;;8.20;;
2462;SDS011;1243;54.298;10.172;2023-07-24T04:56:43;11.50;;;7.80;;
2462;SDS011;1243;54.298;10.172;2023-07-24T04:59:08;12.33;;;8.50;;
2462;SDS011;1243;54.298;10.172;2023-07-24T05:01:34;10.40;;;9.20;;
2462;SDS011;1243;54.298;10.172;2023-07-24T05:04:00;12.33;;;9.80;;
2462;SDS011;1243;54.298;10.172;2023-07-24T05:06:26;13.77;;;9.47;;
2462;SDS011;1243;54.298;10.172;2023-07-24T05:08:52;13.57;;;9.47;;
2462;SDS011;1243;54.298;10.172;2023-07-24T05:11:18;9.93;;;8.97;;
2462;SDS011;1243;54.298;10.172;2023-07-24T05:13:44;13.53;;;9.00;;
2462;SDS011;1243;54.298;10.172;2023-07-24T05:16:10;10.97;;;8.47;;
2462;SDS011;1243;54.298;10.172;2023-07-24T05:18:35;12.93;;;9.13;;
2462;SDS011;1243;54.298;10.172;2023-07-24T05:21:01;11.67;;;8.70;;
2462;SDS011;1243;54.298;10.172;2023-07-24T05:23:27;11.03;;;9.90;;
2462;SDS011;1243;54.298;10.172;2023-07-24T05:25:59;13.67;;;9.83;;
2462;SDS011;1243;54.298;10.172;2023-07-24T05:28:26;12.30;;;9.00;;
2462;SDS011;1243;54.298;10.172;2023-07-24T05:30:52;13.20;;;8.60;;
2462;SDS011;1243;54.298;10.172;2023-07-24T05:33:19;10.30;;;8.17;;
2462;SDS011;1243;54.298;10.172;2023-07-24T05:35:48;14.17;;;9.63;;
2462;SDS011;1243;54.298;10.172;2023-07-24T05:38:15;10.30;;;8.60;;
2462;SDS011;1243;54.298;10.172;2023-07-24T05:40:40;10.97;;;9.20;;
2462;SDS011;1243;54.298;10.172;2023-07-24T05:43:06;11.87;;;8.30;;
2462;SDS011;1243;54.298;10.172;2023-07-24T05:45:32;13.70;;;9.23;;
2462;SDS011;1243;54.298;10.172;2023-07-24T05:47:57;12.10;;;8.20;;
2462;SDS011;1243;54.298;10.172;2023-07-24T05:50:23;13.30;;;7.83;;
2462;SDS011;1243;54.298;10.172;2023-07-24T05:52:49;11.90;;;9.10;;
2462;SDS011;1243;54.298;10.172;2023-07-24T05:55:16;10.90;;;8.60;;
2462;SDS011;1243;54.298;10.172;2023-07-24T05:57:41;14.50;;;8.10;;
2462;SDS011;1243;54.298;10.172;2023-07-24T06:00:07;9.60;;;7.93;;
2462;SDS011;1243;54.298;10.172;2023-07-24T06:02:33;11.27;;;8.40;;
2462;SDS011;1243;54.298;10.172;2023-07-24T06:04:59;11.93;;;8.00;;
2462;SDS011;1243;54.298;10.172;2023-07-24T06:07:24;10.73;;;8.10;;
2462;SDS011;1243;54.298;10.172;2023-07-24T06:09:50;12.80;;;8.23;;
2462;SDS011;1243;54.298;10.172;2023-07-24T06:12:15;11.90;;;8.53;;
2462;SDS011;1243;54.298;10.172;2023-07-24T06:14:41;10.33;;;8.20;;
2462;SDS011;1243;54.298;10.172;2023-07-24T06:17:07;11.93;;;9.13;;
2462;SDS011;1243;54.298;10.172;2023-07-24T06:19:32;12.17;;;8.50;;
2462;SDS011;1243;54.298;10.172;2023-07-24T06:21:59;11.03;;;8.80;;
2462;SDS011;1243;54.298;10.172;2023-07-24T06:24:24;10.37;;;8.90;;
2462;SDS011;1243;54.298;10.172;2023-07-24T06:26:50;16.23;;;8.80;;
2462;SDS011;1243;54.298;10.172;2023-07-24T06:29:16;8.73;;;7.70;;
2462;SDS011;1243;54.298;10.172;2023-07-24T06:31:41;10.27;;;9.17;;
2462;SDS011;1243;54.298;10.172;2023-07-24T06:34:07;8.17;;;7.37;;
2462;SDS011;1243;54.298;10.172;2023-07-24T06:36:33;10.40;;;7.70;;
2462;SDS011;1243;54.298;10.172;2023-07-24T06:38:58;10.27;;;8.43;;
2462;SDS011;1243;54.298;10.172;2023-07-24T06:41:24;12.13;;;10.40;;
2462;SDS011;1243;54.298;10.172;2023-07-24T06:43:50;10.73;;;8.10;;
2462;SDS011;1243;54.298;10.172;2023-07-24T06:46:17;8.23;;;7.37;;
2462;SDS011;1243;54.298;10.172;2023-07-24T06:48:42;9.10;;;7.10;;
2462;SDS011;1243;54.298;10.172;2023-07-24T06:51:08;12.47;;;8.00;;
2462;SDS011;1243;54.298;10.172;2023-07-24T06:53:34;15.00;;;8.33;;
2462;SDS011;1243;54.298;10.172;2023-07-24T06:56:00;10.20;;;8.07;;
2462;SDS011;1243;54.298;10.172;2023-07-24T06:58:26;9.80;;;7.97;;
2462;SDS011;1243;54.298;10.172;2023-07-24T07:00:51;9.80;;;8.90;;
2462;SDS011;1243;54.298;10.172;2023-07-24T07:03:17;9.97;;;8.07;;
2462;SDS011;1243;54.298;10.172;2023-07-24T07:05:43;10.10;;;7.80;;
2462;SDS011;1243;54.298;10.172;2023-07-24T07:08:11;14.70;;;8.43;;
2462;SDS011;1243;54.298;10.172;2023-07-24T07:10:37;12.13;;;8.73;;
2462;SDS011;1243;54.298;10.172;2023-07-24T07:13:03;8.60;;;7.43;;
2462;SDS011;1243;54.298;10.172;2023-07-24T07:15:29;9.30;;;7.80;;
2462;SDS011;1243;54.298;10.172;2023-07-24T07:17:54;11.60;;;10.07;;
2462;SDS011;1243;54.298;10.172;2023-07-24T07:20:20;8.83;;;7.80;;
2462;SDS011;1243;54.298;10.172;2023-07-24T07:22:46;14.37;;;8.67;;
2462;SDS011;1243;54.298;10.172;2023-07-24T07:25:11;11.40;;;8.63;;
2462;SDS011;1243;54.298;10.172;2023-07-24T07:27:37;15.83;;;9.93;;
2462;SDS011;1243;54.298;10.172;2023-07-24T07:30:03;10.70;;;9.50;;
2462;SDS011;1243;54.298;10.172;2023-07-24T07:32:29;11.73;;;10.30;;
2462;SDS011;1243;54.298;10.172;2023-07-24T07:34:55;10.87;;;8.73;;
2462;SDS011;1243;54.298;10.172;2023-07-24T07:37:20;12.63;;;10.03;;
2462;SDS011;1243;54.298;10.172;2023-07-24T07:39:46;12.80;;;9.43;;
2462;SDS011;1243;54.298;10.172;2023-07-24T07:42:12;10.47;;;9.37;;
2462;SDS011;1243;54.298;10.172;2023-07-24T07:44:37;11.87;;;10.67;;
2462;SDS011;1243;54.298;10.172;2023-07-24T07:47:03;10.83;;;9.70;;
2462;SDS011;1243;54.298;10.172;2023-07-24T07:49:29;8.87;;;7.97;;
2462;SDS011;1243;54.298;10.172;2023-07-24T07:51:55;14.47;;;10.03;;
2462;SDS011;1243;54.298;10.172;2023-07-24T07:54:20;11.93;;;10.33;;
2462;SDS011;1243;54.298;10.172;2023-07-24T07:56:46;14.77;;;9.57;;
2462;SDS011;1243;54.298;10.172;2023-07-24T07:59:12;14.03;;;11.00;;
2462;SDS011;1243;54.298;10.172;2023-07-24T08:01:37;14.10;;;12.40;;
2462;SDS011;1243;54.298;10.172;2023-07-24T08:04:04;11.87;;;10.43;;
2462;SDS011;1243;54.298;10.172;2023-07-24T08:06:30;11.17;;;9.73;;
2462;SDS011;1243;54.298;10.172;2023-07-24T08:08:56;11.90;;;9.87;;
2462;SDS011;1243;54.298;10.172;2023-07-24T08:11:23;11.13;;;9.63;;
2462;SDS011;1243;54.298;10.172;2023-07-24T08:13:48;11.20;;;10.10;;
2462;SDS011;1243;54.298;10.172;2023-07-24T08:16:14;14.93;;;9.87;;
2462;SDS011;1243;54.298;10.172;2023-07-24T08:18:45;10.93;;;9.77;;
2462;SDS011;1243;54.298;10.172;2023-07-24T08:21:12;11.80;;;10.60;;
2462;SDS011;1243;54.298;10.172;2023-07-24T08:23:38;11.67;;;9.40;;
2462;SDS011;1243;54.298;10.172;2023-07-24T08:26:04;13.90;;;9.80;;
2462;SDS011;1243;54.298;10.172;2023-07-24T08:28:31;11.17;;;9.33;;
2462;SDS011;1243;54.298;10.172;2023-07-24T08:30:57;11.73;;;10.53;;
2462;SDS011;1243;54.298;10.172;2023-07-24T08:33:24;13.33;;;10.67;;
2462;SDS011;1243;54.298;10.172;2023-07-24T08:35:59;12.97;;;10.83;;
2462;SDS011;1243;54.298;10.172;2023-07-24T08:38:29;12.57;;;10.10;;
2462;SDS011;1243;54.298;10.172;2023-07-24T08:43:31;15.30;;;11.40;;
2462;SDS011;1243;54.298;10.172;2023-07-24T08:45:58;12.87;;;10.13;;
2462;SDS011;1243;54.298;10.172;2023-07-24T08:48:26;14.97;;;11.50;;
2462;SDS011;1243;54.298;10.172;2023-07-24T08:50:54;16.83;;;10.47;;
2462;SDS011;1243;54.298;10.172;2023-07-24T08:53:22;15.97;;;11.70;;
2462;SDS011;1243;54.298;10.172;2023-07-24T08:55:49;15.60;;;11.10;;
2462;SDS011;1243;54.298;10.172;2023-07-24T08:58:17;12.93;;;10.30;;
2462;SDS011;1243;54.298;10.172;2023-07-24T09:00:43;12.53;;;11.13;;
2462;SDS011;1243;54.298;10.172;2023-07-24T09:03:09;12.47;;;9.93;;
2462;SDS011;1243;54.298;10.172;2023-07-24T09:05:35;13.77;;;10.20;;
2462;SDS011;1243;54.298;10.172;2023-07-24T09:08:01;13.60;;;9.00;;
2462;SDS011;1243;54.298;10.172;2023-07-24T09:10:26;12.90;;;9.40;;
2462;SDS011;1243;54.298;10.172;2023-07-24T09:12:53;13.00;;;9.37;;
2462;SDS011;1243;54.298;10.172;2023-07-24T09:15:19;10.90;;;9.80;;
2462;SDS011;1243;54.298;10.172;2023-07-24T09:17:48;11.73;;;8.77;;
2462;SDS011;1243;54.298;10.172;2023-07-24T09:20:15;13.70;;;9.83;;
2462;SDS011;1243;54.298;10.172;2023-07-24T09:22:51;12.43;;;9.67;;
2462;SDS011;1243;54.298;10.172;2023-07-24T09:25:17;11.00;;;9.90;;
2462;SDS011;1243;54.298;10.172;2023-07-24T09:27:43;16.40;;;10.10;;
2462;SDS011;1243;54.298;10.172;2023-07-24T09:30:13;14.43;;;10.43;;
2462;SDS011;1243;54.298;10.172;2023-07-24T09:32:40;16.40;;;10.03;;
2462;SDS011;1243;54.298;10.172;2023-07-24T09:35:18;21.07;;;10.47;;
2462;SDS011;1243;54.298;10.172;2023-07-24T09:37:44;11.23;;;8.60;;
2462;SDS011;1243;54.298;10.172;2023-07-24T09:40:11;12.70;;;10.03;;
2462;SDS011;1243;54.298;10.172;2023-07-24T09:42:39;13.40;;;9.43;;
2462;SDS011;1243;54.298;10.172;2023-07-24T09:45:05;14.30;;;9.73;;
2462;SDS011;1243;54.298;10.172;2023-07-24T09:47:33;10.60;;;8.67;;
2462;SDS011;1243;54.298;10.172;2023-07-24T09:49:59;10.53;;;8.17;;
2462;SDS011;1243;54.298;10.172;2023-07-24T09:52:29;10.60;;;8.50;;
2462;SDS011;1243;54.298;10.172;2023-07-24T09:55:11;11.17;;;8.97;;
2462;SDS011;1243;54.298;10.172;2023-07-24T09:57:43;12.10;;;8.00;;
2462;SDS011;1243;54.298;10.172;2023-07-24T10:00:11;13.90;;;9.50;;
2462;SDS011;1243;54.298;10.172;2023-07-24T10:02:37;7.57;;;6.87;;
2462;SDS011;1243;54.298;10.172;2023-07-24T10:05:03;14.45;;;7.45;;
2462;SDS011;1243;54.298;10.172;2023-07-24T10:07:30;10.75;;;7.60;;
2462;SDS011;1243;54.298;10.172;2023-07-24T10:09:57;9.53;;;8.33;;
2462;SDS011;1243;54.298;10.172;2023-07-24T10:12:23;9.20;;;7.67;;
2462;SDS011;1243;54.298;10.172;2023-07-24T10:14:52;14.13;;;9.07;;
2462;SDS011;1243;54.298;10.172;2023-07-24T10:17:36;9.07;;;8.13;;
2462;SDS011;1243;54.298;10.172;2023-07-24T10:20:05;9.63;;;7.70;;
2462;SDS011;1243;54.298;10.172;2023-07-24T10:22:33;10.43;;;7.67;;
2462;SDS011;1243;54.298;10.172;2023-07-24T10:24:59;9.77;;;7.77;;
2462;SDS011;1243;54.298;10.172;2023-07-24T10:27:25;12.20;;;7.80;;
2462;SDS011;1243;54.298;10.172;2023-07-24T10:29:57;15.63;;;11.20;;
2462;SDS011;1243;54.298;10.172;2023-07-24T10:32:32;9.80;;;7.40;;
2462;SDS011;1243;54.298;10.172;2023-07-24T10:34:59;7.90;;;7.13;;
2462;SDS011;1243;54.298;10.172;2023-07-24T10:37:35;11.27;;;6.97;;
2462;SDS011;1243;54.298;10.172;2023-07-24T10:40:02;7.90;;;7.10;;
2462;SDS011;1243;54.298;10.172;2023-07-24T10:42:29;8.07;;;7.20;;
2462;SDS011;1243;54.298;10.172;2023-07-24T10:45:17;7.70;;;6.90;;
2462;SDS011;1243;54.298;10.172;2023-07-24T10:50:08;9.85;;;7.05;;
2462;SDS011;1243;54.298;10.172;2023-07-24T10:52:34;6.50;;;6.00;;
2462;SDS011;1243;54.298;10.172;2023-07-24T10:55:03;6.75;;;6.15;;
2462;SDS011;1243;54.298;10.172;2023-07-24T10:57:29;13.30;;;6.67;;
2462;SDS011;1243;54.298;10.172;2023-07-24T10:59:56;7.70;;;6.03;;
2462;SDS011;1243;54.298;10.172;2023-07-24T11:02:21;7.67;;;5.90;;
2462;SDS011;1243;54.298;10.172;2023-07-24T11:04:48;9.13;;;6.30;;
2462;SDS011;1243;54.298;10.172;2023-07-24T11:07:14;9.10;;;5.83;;
2462;SDS011;1243;54.298;10.172;2023-07-24T11:09:40;10.83;;;6.00;;
2462;SDS011;1243;54.298;10.172;2023-07-24T11:12:13;8.03;;;7.33;;
2462;SDS011;1243;54.298;10.172;2023-07-24T11:14:51;8.37;;;6.83;;
2462;SDS011;1243;54.298;10.172;2023-07-24T11:17:20;7.53;;;6.67;;
2462;SDS011;1243;54.298;10.172;2023-07-24T11:19:47;8.20;;;6.60;;
2462;SDS011;1243;54.298;10.172;2023-07-24T11:22:13;7.87;;;6.20;;
2462;SDS011;1243;54.298;10.172;2023-07-24T11:24:48;8.03;;;7.27;;
2462;SDS011;1243;54.298;10.172;2023-07-24T11:27:14;10.67;;;6.50;;
2462;SDS011;1243;54.298;10.172;2023-07-24T11:29:41;8.10;;;5.93;;
2462;SDS011;1243;54.298;10.172;2023-07-24T11:32:17;9.17;;;5.57;;
2462;SDS011;1243;54.298;10.172;2023-07-24T11:34:46;7.87;;;4.80;;
2462;SDS011;1243;54.298;10.172;2023-07-24T11:37:13;6.60;;;6.00;;
2462;SDS011;1243;54.298;10.172;2023-07-24T11:39:40;9.13;;;5.43;;
2462;SDS011;1243;54.298;10.172;2023-07-24T11:42:06;5.00;;;4.53;;
2462;SDS011;1243;54.298;10.172;2023-07-24T11:44:31;7.13;;;5.53;;
2462;SDS011;1243;54.298;10.172;2023-07-24T11:47:01;5.77;;;5.07;;
2462;SDS011;1243;54.298;10.172;2023-07-24T11:49:28;6.67;;;5.40;;
2462;SDS011;1243;54.298;10.172;2023-07-24T11:52:04;6.67;;;4.87;;
2462;SDS011;1243;54.298;10.172;2023-07-24T11:54:30;7.30;;;5.83;;
2462;SDS011;1243;54.298;10.172;2023-07-24T11:56:59;6.77;;;5.70;;
2462;SDS011;1243;54.298;10.172;2023-07-24T11:59:24;7.90;;;6.43;;
2462;SDS011;1243;54.298;10.172;2023-07-24T12:01:50;16.53;;;6.97;;
2462;SDS011;1243;54.298;10.172;2023-07-24T12:04:17;26.73;;;8.70;;
2462;SDS011;1243;54.298;10.172;2023-07-24T12:06:43;16.17;;;9.23;;
2462;SDS011;1243;54.298;10.172;2023-07-24T12:09:10;7.60;;;6.90;;
2462;SDS011;1243;54.298;10.172;2023-07-24T12:11:40;13.00;;;7.63;;
2462;SDS011;1243;54.298;10.172;2023-07-24T12:14:12;12.93;;;8.03;;
2462;SDS011;1243;54.298;10.172;2023-07-24T12:16:39;10.23;;;7.70;;
2462;SDS011;1243;54.298;10.172;2023-07-24T12:19:04;9.37;;;7.40;;
2462;SDS011;1243;54.298;10.172;2023-07-24T12:21:30;10.07;;;7.40;;
2462;SDS011;1243;54.298;10.172;2023-07-24T12:23:56;12.67;;;6.93;;
2462;SDS011;1243;54.298;10.172;2023-07-24T12:26:22;7.47;;;6.23;;
2462;SDS011;1243;54.298;10.172;2023-07-24T12:28:50;7.07;;;6.47;;
2462;SDS011;1243;54.298;10.172;2023-07-24T12:31:16;8.50;;;6.57;;
2462;SDS011;1243;54.298;10.172;2023-07-24T12:33:42;4.90;;;4.50;;
2462;SDS011;1243;54.298;10.172;2023-07-24T12:36:08;5.50;;;5.00;;
2462;SDS011;1243;54.298;10.172;2023-07-24T12:38:33;5.70;;;5.10;;
2462;SDS011;1243;54.298;10.172;2023-07-24T12:40:59;5.83;;;5.23;;
2462;SDS011;1243;54.298;10.172;2023-07-24T12:43:26;10.73;;;6.97;;
2462;SDS011;1243;54.298;10.172;2023-07-24T12:45:52;7.00;;;6.10;;
2462;SDS011;1243;54.298;10.172;2023-07-24T12:48:20;7.50;;;6.00;;
2462;SDS011;1243;54.298;10.172;2023-07-24T12:50:47;6.70;;;6.00;;
2462;SDS011;1243;54.298;10.172;2023-07-24T12:53:14;9.60;;;6.23;;
2462;SDS011;1243;54.298;10.172;2023-07-24T12:55:40;6.63;;;5.47;;
2462;SDS011;1243;54.298;10.172;2023-07-24T12:58:08;7.10;;;5.50;;
2462;SDS011;1243;54.298;10.172;2023-07-24T13:00:34;7.07;;;6.37;;
2462;SDS011;1243;54.298;10.172;2023-07-24T13:03:00;6.27;;;5.50;;
2462;SDS011;1243;54.298;10.172;2023-07-24T13:05:29;9.57;;;5.10;;
2462;SDS011;1243;54.298;10.172;2023-07-24T13:07:56;8.13;;;5.60;;
2462;SDS011;1243;54.298;10.172;2023-07-24T13:10:24;7.03;;;5.77;;
2462;SDS011;1243;54.298;10.172;2023-07-24T13:12:51;10.93;;;5.30;;
2462;SDS011;1243;54.298;10.172;2023-07-24T13:15:18;6.10;;;5.40;;
2462;SDS011;1243;54.298;10.172;2023-07-24T13:17:45;8.47;;;5.50;;
2462;SDS011;1243;54.298;10.172;2023-07-24T13:20:15;16.47;;;6.37;;
2462;SDS011;1243;54.298;10.172;2023-07-24T13:22:43;7.07;;;5.90;;
2462;SDS011;1243;54.298;10.172;2023-07-24T13:25:12;6.57;;;5.87;;
2462;SDS011;1243;54.298;10.172;2023-07-24T13:27:39;6.67;;;5.67;;
2462;SDS011;1243;54.298;10.172;2023-07-24T13:30:05;7.60;;;5.90;;
2462;SDS011;1243;54.298;10.172;2023-07-24T13:32:33;5.57;;;5.10;;
2462;SDS011;1243;54.298;10.172;2023-07-24T13:34:59;6.30;;;5.70;;
2462;SDS011;1243;54.298;10.172;2023-07-24T13:37:25;5.33;;;4.83;;
2462;SDS011;1243;54.298;10.172;2023-07-24T13:39:51;5.80;;;5.20;;
2462;SDS011;1243;54.298;10.172;2023-07-24T13:42:18;9.13;;;4.30;;
2462;SDS011;1243;54.298;10.172;2023-07-24T13:44:44;8.13;;;5.43;;
2462;SDS011;1243;54.298;10.172;2023-07-24T13:47:10;6.27;;;4.53;;
2462;SDS011;1243;54.298;10.172;2023-07-24T13:49:35;4.80;;;4.17;;
2462;SDS011;1243;54.298;10.172;2023-07-24T13:52:01;3.40;;;3.00;;
2462;SDS011;1243;54.298;10.172;2023-07-24T13:54:27;7.13;;;4.10;;
2462;SDS011;1243;54.298;10.172;2023-07-24T13:56:52;3.77;;;3.33;;
2462;SDS011;1243;54.298;10.172;2023-07-24T13:59:18;4.10;;;3.57;;
2462;SDS011;1243;54.298;10.172;2023-07-24T14:01:44;2.90;;;2.70;;
2462;SDS011;1243;54.298;10.172;2023-07-24T14:04:09;3.73;;;3.40;;
2462;SDS011;1243;54.298;10.172;2023-07-24T14:06:37;3.57;;;3.17;;
2462;SDS011;1243;54.298;10.172;2023-07-24T14:09:03;3.70;;;3.40;;
2462;SDS011;1243;54.298;10.172;2023-07-24T14:11:29;4.20;;;3.90;;
2462;SDS011;1243;54.298;10.172;2023-07-24T14:13:55;4.73;;;3.50;;
2462;SDS011;1243;54.298;10.172;2023-07-24T14:16:21;3.60;;;3.30;;
2462;SDS011;1243;54.298;10.172;2023-07-24T14:18:47;4.47;;;4.03;;
2462;SDS011;1243;54.298;10.172;2023-07-24T14:21:12;4.30;;;3.30;;
2462;SDS011;1243;54.298;10.172;2023-07-24T14:23:38;9.83;;;3.73;;
2462;SDS011;1243;54.298;10.172;2023-07-24T14:26:04;4.57;;;4.17;;
2462;SDS011;1243;54.298;10.172;2023-07-24T14:28:29;4.83;;;3.90;;
2462;SDS011;1243;54.298;10.172;2023-07-24T14:30:55;4.43;;;3.83;;
2462;SDS011;1243;54.298;10.172;2023-07-24T14:33:21;4.83;;;3.50;;
2462;SDS011;1243;54.298;10.172;2023-07-24T14:35:47;5.70;;;3.23;;
2462;SDS011;1243;54.298;10.172;2023-07-24T14:38:13;7.00;;;3.40;;
2462;SDS011;1243;54.298;10.172;2023-07-24T14:40:38;5.30;;;3.87;;
2462;SDS011;1243;54.298;10.172;2023-07-24T14:43:04;3.87;;;3.43;;
2462;SDS011;1243;54.298;10.172;2023-07-24T14:45:30;4.53;;;3.83;;
2462;SDS011;1243;54.298;10.172;2023-07-24T14:47:56;5.63;;;2.77;;
2462;SDS011;1243;54.298;10.172;2023-07-24T14:50:23;5.03;;;3.93;;
2462;SDS011;1243;54.298;10.172;2023-07-24T14:52:49;7.40;;;3.90;;
2462;SDS011;1243;54.298;10.172;2023-07-24T14:55:14;3.50;;;3.10;;
2462;SDS011;1243;54.298;10.172;2023-07-24T14:57:41;3.43;;;3.17;;
2462;SDS011;1243;54.298;10.172;2023-07-24T15:00:07;4.80;;;3.33;;